Jacksonville, Maryland
Current Conditions -  °F | °C
As of 8:56 AM on Wednesday 28 Jan 2015 (Local Time) from KAPG Reporting Station
Clear Clear  
Wind Chill: 13°   Ceiling: Unl
Heat Index: 25°   Visibility: 7mi
Dew Point:   Wind: 14mph
Humidity: 43%   Direction: 330°NNW
Pressure: 30.16"   Gusts: NA
Location:  39.5027°N, 76.5721°W
Report Text: KAPG 281356Z 33012KT 7SM SKC M04/M15 A3016
Loading
Personal Weather Stations






























Interactive Weather Map New forecast layout! Learn more

10-Day Weather Forecast

Advertisements
Track Severe Weather on mobile